Time;durP1;ratioP1;P1;durP2;ratioP2;P2;SDS_P1;SDS_P2;PMS_P1;PMS_P2;Temp;Humidity;BMP_temperature;BMP_pressure;BME280_temperature;BME280_humidity;BME280_pressure;Samples;Min_cycle;Max_cycle;Signal;HPM_P1;HPM_P2
2024/02/16 00:02:10;;;;;;;150.50;140.48;;;11.60;99.90;;;;;;12577346;28;20041;-35
2024/02/16 00:08:13;;;;;;;151.77;141.65;;;11.60;99.90;;;;;;12553190;28;20056;-35
2024/02/16 00:14:15;;;;;;;155.15;145.02;;;11.60;99.90;;;;;;12560575;28;20051;-36
2024/02/16 00:20:18;;;;;;;153.63;143.60;;;11.50;99.90;;;;;;12558958;28;20052;-35
2024/02/16 00:26:23;;;;;;;154.23;143.98;;;11.50;99.90;;;;;;12578930;28;20056;-36
2024/02/16 00:32:29;;;;;;;153.82;143.70;;;11.50;99.90;;;;;;12555696;28;20048;-36
2024/02/16 00:38:31;;;;;;;153.98;143.93;;;11.50;99.90;;;;;;12562437;28;20048;-35
2024/02/16 00:44:33;;;;;;;150.95;141.13;;;11.40;99.90;;;;;;12574293;28;20088;-36
2024/02/16 00:50:35;;;;;;;155.30;144.88;;;11.40;99.90;;;;;;12558250;28;20045;-35
2024/02/16 00:56:37;;;;;;;155.27;145.02;;;11.40;99.90;;;;;;12551001;28;20057;-35
2024/02/16 01:02:38;;;;;;;153.38;142.98;;;11.40;99.90;;;;;;12549701;28;20123;-35
2024/02/16 01:08:41;;;;;;;150.30;140.60;;;11.30;99.90;;;;;;12568530;28;20049;-35
2024/02/16 01:14:43;;;;;;;154.45;144.18;;;11.30;99.90;;;;;;12577248;28;20083;-35
2024/02/16 01:20:44;;;;;;;152.45;142.63;;;11.30;99.90;;;;;;12554323;28;20076;-35
2024/02/16 01:26:46;;;;;;;148.50;138.60;;;11.20;99.90;;;;;;12569116;28;20044;-35
2024/02/16 01:32:48;;;;;;;148.27;138.27;;;11.10;99.90;;;;;;12580088;28;20420;-35
2024/02/16 01:38:50;;;;;;;147.52;137.82;;;11.10;99.90;;;;;;12546093;28;20048;-35
2024/02/16 01:44:52;;;;;;;144.93;135.27;;;11.00;99.90;;;;;;12547162;28;20041;-35
2024/02/16 01:50:54;;;;;;;147.95;138.10;;;11.00;99.90;;;;;;12576854;28;20529;-36
2024/02/16 01:56:56;;;;;;;145.68;135.75;;;11.00;99.90;;;;;;12564866;28;20059;-35
2024/02/16 02:02:58;;;;;;;143.98;134.20;;;10.90;99.90;;;;;;12575332;28;20045;-35
2024/02/16 02:09:00;;;;;;;143.98;134.40;;;10.80;99.90;;;;;;12560497;28;20048;-35
2024/02/16 02:15:03;;;;;;;147.38;137.48;;;10.80;99.90;;;;;;12570384;28;20135;-35
2024/02/16 02:21:05;;;;;;;141.80;132.50;;;10.80;99.90;;;;;;12568771;28;20068;-36
2024/02/16 02:27:07;;;;;;;142.80;132.95;;;10.80;99.90;;;;;;12573456;28;20135;-35
2024/02/16 02:33:11;;;;;;;146.30;136.20;;;10.90;99.90;;;;;;12567089;28;20044;-35
2024/02/16 02:39:13;;;;;;;150.20;140.25;;;10.80;99.90;;;;;;12554750;28;20064;-36
2024/02/16 02:45:15;;;;;;;144.60;135.13;;;10.80;99.90;;;;;;12560909;28;20041;-36
2024/02/16 02:51:17;;;;;;;145.68;136.07;;;10.80;99.90;;;;;;12566216;28;20131;-34
2024/02/16 02:57:19;;;;;;;145.52;135.93;;;10.80;99.90;;;;;;12566018;28;20068;-35
2024/02/16 03:03:22;;;;;;;147.77;138.23;;;10.90;99.90;;;;;;12573277;28;21068;-36
2024/02/16 03:09:24;;;;;;;149.18;139.60;;;11.00;99.90;;;;;;12579310;28;20083;-35
2024/02/16 03:15:26;;;;;;;146.18;136.52;;;11.10;99.90;;;;;;12580773;28;20091;-36
2024/02/16 03:21:28;;;;;;;149.82;140.13;;;11.10;99.90;;;;;;12553478;28;20049;-35
2024/02/16 03:27:30;;;;;;;149.50;140.00;;;11.20;99.90;;;;;;12578157;28;20040;-36
2024/02/16 03:33:32;;;;;;;154.40;144.75;;;11.30;99.90;;;;;;12570224;28;20040;-34
2024/02/16 03:39:34;;;;;;;156.30;146.57;;;11.40;99.90;;;;;;12567105;28;20071;-35
2024/02/16 03:45:36;;;;;;;153.88;144.15;;;11.50;99.90;;;;;;12569536;28;20076;-35
2024/02/16 03:51:38;;;;;;;155.20;145.48;;;11.40;99.90;;;;;;12562474;28;20040;-35
2024/02/16 03:57:41;;;;;;;151.50;141.77;;;11.40;99.90;;;;;;12570917;28;20049;-35
2024/02/16 04:03:43;;;;;;;149.65;140.13;;;11.40;99.90;;;;;;12566559;28;20098;-35
2024/02/16 04:09:45;;;;;;;149.18;139.98;;;11.30;99.90;;;;;;12563722;28;20071;-36
2024/02/16 04:15:47;;;;;;;151.68;142.20;;;11.20;99.90;;;;;;12569664;28;20191;-35
2024/02/16 04:21:54;;;;;;;146.98;137.85;;;11.30;99.90;;;;;;12563693;28;20063;-36
2024/02/16 04:28:01;;;;;;;143.10;134.20;;;11.20;99.90;;;;;;12574204;28;20048;-35
2024/02/16 04:34:02;;;;;;;145.63;136.73;;;11.20;99.90;;;;;;12577598;28;20044;-36
2024/02/16 04:40:06;;;;;;;135.35;127.20;;;11.20;99.90;;;;;;12577962;28;20048;-35
2024/02/16 04:46:15;;;;;;;137.68;129.50;;;11.20;99.90;;;;;;12544004;28;20049;-35
2024/02/16 04:52:16;;;;;;;134.27;126.03;;;11.20;99.90;;;;;;12549739;28;20136;-36
2024/02/16 04:58:18;;;;;;;136.40;128.00;;;11.30;99.90;;;;;;12543356;28;20131;-35
2024/02/16 05:04:20;;;;;;;132.80;124.50;;;11.30;99.90;;;;;;12550888;28;20083;-36
2024/02/16 05:10:22;;;;;;;129.40;121.40;;;11.40;99.90;;;;;;12551121;28;20051;-35
2024/02/16 05:16:24;;;;;;;130.15;122.05;;;11.40;99.90;;;;;;12568515;28;20183;-36
2024/02/16 05:22:26;;;;;;;131.30;123.20;;;11.40;99.90;;;;;;12551551;28;20063;-35
2024/02/16 05:28:29;;;;;;;134.80;126.68;;;11.30;99.90;;;;;;12555197;28;20045;-35
2024/02/16 05:34:37;;;;;;;132.20;124.30;;;11.30;99.90;;;;;;12584444;28;20052;-35
2024/02/16 05:40:53;;;;;;;126.65;118.88;;;11.30;99.90;;;;;;12574638;28;20492;-35
2024/02/16 05:46:55;;;;;;;128.45;120.75;;;11.20;99.90;;;;;;12566538;28;20045;-35
2024/02/16 05:52:57;;;;;;;129.07;121.10;;;11.30;99.90;;;;;;12566363;28;20048;-36
2024/02/16 05:58:59;;;;;;;125.97;118.22;;;11.30;99.90;;;;;;12573785;28;20053;-36
2024/02/16 06:05:02;;;;;;;123.40;116.13;;;11.30;99.90;;;;;;12564213;28;20181;-35
2024/02/16 06:11:07;;;;;;;122.30;115.20;;;11.40;99.90;;;;;;12561082;28;20088;-36
2024/02/16 06:17:09;;;;;;;123.45;116.38;;;11.30;99.90;;;;;;12576482;28;20485;-36
2024/02/16 06:23:11;;;;;;;121.65;114.75;;;11.50;99.90;;;;;;12592249;28;20202;-35
2024/02/16 06:29:13;;;;;;;124.88;117.78;;;11.50;99.90;;;;;;12561325;28;20084;-36
2024/02/16 06:35:15;;;;;;;122.07;115.05;;;11.40;99.90;;;;;;12575526;28;20087;-35
2024/02/16 06:41:17;;;;;;;122.28;115.38;;;11.30;99.90;;;;;;12569087;28;20063;-35
2024/02/16 06:47:20;;;;;;;124.95;117.85;;;11.40;99.90;;;;;;12544898;28;20056;-35
2024/02/16 06:53:22;;;;;;;124.30;117.43;;;11.40;99.90;;;;;;12576015;28;20497;-35
2024/02/16 06:59:23;;;;;;;118.47;111.78;;;11.40;99.90;;;;;;12561030;28;20175;-36
2024/02/16 07:05:27;;;;;;;118.85;112.05;;;11.60;99.90;;;;;;12557800;28;20486;-35
2024/02/16 07:11:29;;;;;;;123.05;116.20;;;11.70;99.90;;;;;;12585640;28;21724;-35
2024/02/16 07:17:31;;;;;;;118.72;112.03;;;11.80;99.90;;;;;;12562405;28;20057;-36
2024/02/16 07:23:33;;;;;;;120.63;113.93;;;11.90;99.90;;;;;;12499517;28;20187;-35
2024/02/16 07:29:35;;;;;;;117.72;111.07;;;11.90;99.90;;;;;;12532472;28;20053;-36
2024/02/16 07:35:40;;;;;;;117.80;111.28;;;11.80;99.90;;;;;;12503898;28;20076;-36
2024/02/16 07:41:42;;;;;;;116.25;110.00;;;11.90;99.90;;;;;;12508814;28;20056;-36
2024/02/16 07:47:44;;;;;;;116.15;109.72;;;12.00;99.90;;;;;;12508795;28;20049;-36
2024/02/16 07:53:46;;;;;;;115.57;109.40;;;12.20;99.90;;;;;;12509067;28;20520;-36
2024/02/16 07:59:48;;;;;;;118.55;112.30;;;12.30;99.90;;;;;;12490247;28;20099;-35
2024/02/16 08:05:50;;;;;;;125.70;119.03;;;12.40;99.90;;;;;;12535684;28;20041;-36
2024/02/16 08:11:52;;;;;;;128.07;121.40;;;12.50;99.90;;;;;;12515126;28;20091;-36
2024/02/16 08:17:54;;;;;;;125.75;119.07;;;12.50;99.90;;;;;;12511346;28;20623;-36
2024/02/16 08:23:56;;;;;;;126.80;120.25;;;12.60;99.90;;;;;;12504902;28;20041;-37
2024/02/16 08:29:59;;;;;;;128.45;121.80;;;12.70;99.90;;;;;;12527551;28;20058;-35
2024/02/16 08:36:01;;;;;;;127.95;121.28;;;12.70;99.90;;;;;;12514748;28;20132;-36
2024/02/16 08:42:03;;;;;;;124.88;118.38;;;12.70;99.90;;;;;;12516500;28;20048;-36
2024/02/16 08:48:05;;;;;;;123.55;117.20;;;12.80;99.90;;;;;;12523452;28;20195;-36
2024/02/16 08:54:07;;;;;;;120.68;114.38;;;12.90;99.90;;;;;;12518665;28;20059;-35
2024/02/16 09:00:12;;;;;;;122.97;116.82;;;13.10;99.90;;;;;;12502352;28;20049;-36
2024/02/16 09:06:14;;;;;;;124.95;118.75;;;13.20;99.90;;;;;;12500140;28;20528;-35
2024/02/16 09:12:16;;;;;;;126.93;120.55;;;13.30;99.90;;;;;;12516311;28;20586;-36
2024/02/16 09:18:18;;;;;;;121.97;115.88;;;13.20;99.90;;;;;;12516004;28;20053;-36
2024/02/16 09:24:20;;;;;;;121.00;114.78;;;13.20;99.90;;;;;;12545162;28;20413;-36
2024/02/16 09:30:22;;;;;;;120.75;114.65;;;13.30;99.90;;;;;;12565199;28;20059;-36
2024/02/16 09:36:24;;;;;;;121.70;115.50;;;13.40;99.90;;;;;;12571182;28;20063;-36
2024/02/16 09:42:26;;;;;;;119.78;113.70;;;13.30;99.90;;;;;;12554487;28;20450;-35
2024/02/16 09:48:28;;;;;;;116.25;110.45;;;13.40;99.90;;;;;;12568895;28;20049;-35
2024/02/16 09:54:34;;;;;;;115.43;109.72;;;13.50;99.90;;;;;;12568269;28;20051;-36
2024/02/16 10:00:36;;;;;;;114.85;109.07;;;13.70;99.90;;;;;;12550447;28;20052;-36
2024/02/16 10:06:48;;;;;;;112.65;107.03;;;13.80;99.90;;;;;;12540675;28;20045;-36
2024/02/16 10:13:00;;;;;;;114.28;108.68;;;13.90;99.90;;;;;;12566897;28;20500;-35
2024/02/16 10:19:06;;;;;;;114.78;108.97;;;14.00;99.90;;;;;;12567525;28;20557;-36
2024/02/16 10:25:13;;;;;;;110.82;105.22;;;13.90;99.90;;;;;;12555572;28;20056;-36
2024/02/16 10:31:15;;;;;;;111.07;105.60;;;14.00;99.90;;;;;;12549668;28;20056;-36
2024/02/16 10:37:17;;;;;;;107.80;102.28;;;14.20;99.90;;;;;;12570867;28;20095;-36
2024/02/16 10:43:21;;;;;;;114.43;108.72;;;14.30;99.90;;;;;;12577156;28;20049;-36
2024/02/16 10:49:26;;;;;;;113.13;107.55;;;14.50;99.90;;;;;;12545272;28;20152;-36
2024/02/16 10:55:28;;;;;;;108.97;103.63;;;14.80;99.90;;;;;;12570795;28;20048;-36
2024/02/16 11:01:38;;;;;;;111.65;106.28;;;14.80;99.90;;;;;;12571348;28;20052;-36
2024/02/16 11:07:40;;;;;;;115.43;109.55;;;14.80;99.90;;;;;;12574824;28;20380;-36
2024/02/16 11:13:43;;;;;;;120.00;114.20;;;14.80;99.90;;;;;;12575408;28;20530;-36
2024/02/16 11:19:46;;;;;;;115.95;110.05;;;14.80;99.90;;;;;;12553530;28;20053;-36
2024/02/16 11:25:51;;;;;;;117.65;111.75;;;14.80;99.90;;;;;;12571319;28;20132;-36
2024/02/16 11:31:56;;;;;;;123.57;117.38;;;14.80;99.90;;;;;;12585672;28;20182;-36
2024/02/16 11:37:58;;;;;;;114.97;109.32;;;14.70;99.90;;;;;;12589390;28;20052;-36
2024/02/16 11:44:01;;;;;;;112.82;107.25;;;14.60;99.90;;;;;;12535779;28;20080;-36
2024/02/16 11:50:06;;;;;;;110.63;105.07;;;14.60;99.90;;;;;;12563582;28;20087;-36
2024/02/16 11:56:08;;;;;;;110.75;105.22;;;14.70;99.90;;;;;;12550426;28;20056;-36
2024/02/16 12:02:20;;;;;;;113.78;108.15;;;14.70;99.90;;;;;;12564181;28;20501;-36
2024/02/16 12:08:23;;;;;;;110.30;104.90;;;14.70;99.90;;;;;;12571095;28;20048;-36
2024/02/16 12:14:25;;;;;;;111.07;105.10;;;14.50;99.90;;;;;;12572405;28;20528;-36
2024/02/16 12:20:28;;;;;;;109.57;104.15;;;14.40;99.90;;;;;;12541321;28;20052;-36
2024/02/16 12:26:30;;;;;;;118.28;112.38;;;14.50;99.90;;;;;;12553945;28;20048;-36
2024/02/16 12:32:31;;;;;;;106.80;101.50;;;14.50;99.90;;;;;;12580196;28;20067;-36
2024/02/16 12:38:33;;;;;;;99.55;94.57;;;14.60;99.90;;;;;;12543782;28;20048;-36
2024/02/16 12:44:35;;;;;;;101.70;96.60;;;14.50;99.90;;;;;;12523307;28;20080;-36
2024/02/16 12:50:39;;;;;;;91.88;87.32;;;14.60;99.90;;;;;;12563025;28;20056;-36
2024/02/16 12:56:42;;;;;;;96.90;92.00;;;14.60;99.90;;;;;;12551639;28;20048;-35
2024/02/16 13:02:44;;;;;;;96.43;91.68;;;14.70;99.90;;;;;;12559656;28;20056;-36
2024/02/16 13:08:46;;;;;;;96.00;91.20;;;14.60;99.90;;;;;;12564436;28;20076;-36
2024/02/16 13:14:47;;;;;;;93.68;88.93;;;14.60;99.90;;;;;;12540587;28;20048;-36
2024/02/16 13:20:49;;;;;;;98.82;93.82;;;14.50;99.90;;;;;;12550055;28;20053;-36
2024/02/16 13:26:52;;;;;;;96.10;91.15;;;14.40;99.90;;;;;;12552106;28;20174;-36
2024/02/16 13:32:55;;;;;;;96.68;91.85;;;14.40;99.90;;;;;;12568941;28;20562;-36
2024/02/16 13:38:56;;;;;;;92.82;87.68;;;14.30;99.90;;;;;;12558440;28;20524;-36
2024/02/16 13:44:58;;;;;;;93.97;89.22;;;14.30;99.90;;;;;;12537434;28;20048;-36
2024/02/16 13:51:00;;;;;;;96.28;90.85;;;14.40;99.90;;;;;;12570252;28;20072;-36
2024/02/16 13:57:03;;;;;;;94.93;90.03;;;14.20;99.90;;;;;;12540398;28;20082;-36
2024/02/16 14:03:08;;;;;;;95.90;90.97;;;14.10;99.90;;;;;;12586016;28;20049;-36
2024/02/16 14:09:13;;;;;;;91.65;86.28;;;14.00;99.90;;;;;;12544331;28;20047;-36
2024/02/16 14:15:27;;;;;;;95.82;90.57;;;14.00;99.90;;;;;;12577566;28;20106;-36
2024/02/16 14:21:33;;;;;;;98.25;93.15;;;14.00;99.90;;;;;;12541551;28;20140;-36
2024/02/16 14:27:35;;;;;;;98.50;93.30;;;14.00;99.90;;;;;;12577114;28;20176;-36
2024/02/16 14:33:37;;;;;;;95.47;90.10;;;13.90;99.90;;;;;;12579576;28;20055;-36
2024/02/16 14:39:39;;;;;;;80.95;76.25;;;14.00;99.90;;;;;;12555305;28;20079;-36
2024/02/16 14:45:41;;;;;;;89.63;84.60;;;14.00;99.90;;;;;;12538422;28;20078;-36
2024/02/16 14:51:44;;;;;;;92.03;87.07;;;14.00;99.90;;;;;;12572720;28;20036;-36
2024/02/16 14:57:45;;;;;;;89.18;84.32;;;14.00;99.90;;;;;;12581418;28;20051;-36
2024/02/16 15:03:47;;;;;;;100.15;94.45;;;13.90;99.90;;;;;;12558908;28;20577;-36
2024/02/16 15:09:49;;;;;;;103.13;97.47;;;13.70;99.90;;;;;;12548681;28;20047;-36
2024/02/16 15:15:51;;;;;;;100.28;94.68;;;13.40;99.90;;;;;;12570876;28;20041;-36
2024/02/16 15:21:53;;;;;;;115.55;108.95;;;13.10;99.90;;;;;;12549919;28;20072;-36
2024/02/16 15:27:56;;;;;;;124.82;117.63;;;13.00;99.90;;;;;;12548966;28;20504;-36
2024/02/16 15:33:58;;;;;;;125.70;118.18;;;13.00;99.90;;;;;;12588643;28;20057;-36
2024/02/16 15:40:00;;;;;;;126.60;118.47;;;13.00;99.90;;;;;;12535018;28;20714;-35
2024/02/16 15:46:02;;;;;;;123.50;115.70;;;12.90;99.90;;;;;;12557126;28;20522;-36
2024/02/16 15:52:04;;;;;;;117.75;110.15;;;12.90;99.90;;;;;;12554569;28;20045;-35
2024/02/16 15:58:06;;;;;;;124.78;117.15;;;12.90;99.90;;;;;;12572071;28;20123;-36
2024/02/16 16:04:08;;;;;;;124.00;116.45;;;12.80;99.90;;;;;;12561434;28;20421;-36
2024/02/16 16:10:10;;;;;;;118.55;111.32;;;12.80;99.90;;;;;;12558316;28;20052;-36
2024/02/16 16:16:12;;;;;;;118.75;111.15;;;12.70;99.90;;;;;;12586631;28;20055;-36
2024/02/16 16:22:14;;;;;;;118.10;110.75;;;12.60;99.90;;;;;;12563250;28;20080;-37
2024/02/16 16:28:16;;;;;;;118.95;111.38;;;12.70;99.90;;;;;;12544458;28;20500;-36
2024/02/16 16:34:18;;;;;;;119.45;112.15;;;12.60;99.90;;;;;;12575607;28;20056;-36
2024/02/16 16:40:20;;;;;;;114.07;106.97;;;12.60;99.90;;;;;;12551393;28;20128;-36
2024/02/16 16:46:22;;;;;;;116.75;109.70;;;12.50;99.90;;;;;;12555335;28;20497;-36
2024/02/16 16:52:24;;;;;;;123.75;115.80;;;12.50;99.90;;;;;;12559048;28;20041;-36
2024/02/16 16:58:26;;;;;;;121.07;113.78;;;12.50;99.90;;;;;;12561024;28;20508;-35
2024/02/16 17:04:27;;;;;;;114.28;107.10;;;12.60;99.90;;;;;;12554601;28;20740;-36
2024/02/16 17:10:29;;;;;;;109.88;103.18;;;12.50;99.90;;;;;;12574429;28;20052;-36
2024/02/16 17:16:31;;;;;;;110.72;104.03;;;12.40;99.90;;;;;;12551788;28;20079;-36
2024/02/16 17:22:33;;;;;;;112.20;105.30;;;12.30;99.90;;;;;;12541991;28;20049;-36
2024/02/16 17:28:37;;;;;;;113.15;106.18;;;12.30;99.90;;;;;;12559230;28;20115;-36
2024/02/16 17:34:39;;;;;;;115.10;107.97;;;12.30;99.90;;;;;;12581748;28;20079;-36
2024/02/16 17:40:41;;;;;;;119.57;112.07;;;12.30;99.90;;;;;;12551990;28;20501;-36
2024/02/16 17:46:43;;;;;;;119.30;112.00;;;12.20;99.90;;;;;;12536529;28;20041;-36
2024/02/16 17:52:45;;;;;;;116.95;109.82;;;12.10;99.90;;;;;;12575761;28;20128;-35
2024/02/16 17:58:47;;;;;;;113.22;106.43;;;12.00;99.90;;;;;;12595018;28;20402;-35
2024/02/16 18:04:48;;;;;;;101.28;95.22;;;11.90;99.90;;;;;;12567452;28;20057;-35
2024/02/16 18:10:51;;;;;;;102.28;96.22;;;11.90;99.90;;;;;;12584687;28;20051;-36
2024/02/16 18:16:54;;;;;;;107.43;101.13;;;11.80;99.90;;;;;;12571395;28;20076;-35
2024/02/16 18:22:56;;;;;;;99.50;93.72;;;11.80;99.90;;;;;;12562630;28;20403;-36
2024/02/16 18:28:58;;;;;;;99.45;93.63;;;11.70;99.90;;;;;;12551360;28;20072;-36
2024/02/16 18:35:00;;;;;;;98.90;93.20;;;11.70;99.90;;;;;;12579116;28;20066;-35
2024/02/16 18:41:03;;;;;;;94.22;88.72;;;11.70;99.90;;;;;;12564816;28;20054;-36
2024/02/16 18:47:05;;;;;;;97.13;91.32;;;11.60;99.90;;;;;;12562766;28;20529;-36
2024/02/16 18:53:08;;;;;;;97.75;91.95;;;11.60;99.90;;;;;;12578360;28;20131;-35
2024/02/16 18:59:09;;;;;;;100.43;94.53;;;11.50;99.90;;;;;;12569791;28;20049;-36
2024/02/16 19:05:12;;;;;;;93.57;87.80;;;11.40;99.90;;;;;;12576639;28;20057;-35
2024/02/16 19:11:13;;;;;;;94.95;89.13;;;11.30;99.90;;;;;;12562259;28;20053;-36
2024/02/16 19:17:16;;;;;;;95.80;90.28;;;11.20;99.90;;;;;;12551835;28;20053;-35
2024/02/16 19:23:18;;;;;;;93.93;88.22;;;11.20;99.90;;;;;;12560453;28;20084;-36
2024/02/16 19:29:20;;;;;;;93.82;88.22;;;11.20;99.90;;;;;;12559861;28;20409;-35
2024/02/16 19:35:22;;;;;;;96.03;90.38;;;11.20;99.90;;;;;;12580706;28;20520;-35
2024/02/16 19:41:24;;;;;;;102.82;96.80;;;11.30;99.90;;;;;;12554725;28;20053;-35
2024/02/16 19:47:26;;;;;;;100.85;95.15;;;11.20;99.90;;;;;;12564009;28;20045;-35
2024/02/16 19:53:28;;;;;;;90.45;85.45;;;11.20;99.90;;;;;;12577844;28;20051;-36
2024/02/16 19:59:30;;;;;;;90.53;85.53;;;11.10;99.90;;;;;;12588511;28;20048;-35
2024/02/16 20:05:32;;;;;;;83.95;79.25;;;11.00;99.90;;;;;;12560769;28;20072;-36
2024/02/16 20:11:34;;;;;;;83.57;78.88;;;11.00;99.90;;;;;;12564845;28;20067;-36
2024/02/16 20:17:37;;;;;;;89.05;84.15;;;10.90;99.90;;;;;;12577156;28;20131;-35
2024/02/16 20:23:39;;;;;;;92.82;87.53;;;10.90;99.90;;;;;;12547477;28;20063;-35
2024/02/16 20:29:40;;;;;;;90.65;85.55;;;10.90;99.90;;;;;;12571160;28;20045;-35
2024/02/16 20:35:42;;;;;;;96.75;91.25;;;10.90;99.90;;;;;;12562372;28;20502;-35
2024/02/16 20:41:45;;;;;;;97.53;91.93;;;10.90;99.90;;;;;;12556870;28;20428;-35
2024/02/16 20:47:47;;;;;;;97.30;91.68;;;11.00;99.90;;;;;;12556846;28;20045;-35
2024/02/16 20:53:49;;;;;;;100.53;94.93;;;10.90;99.90;;;;;;12554840;28;20044;-35
2024/02/16 20:59:50;;;;;;;99.88;94.30;;;10.90;99.90;;;;;;12529422;28;20116;-35
2024/02/16 21:05:52;;;;;;;97.53;92.03;;;11.00;99.90;;;;;;12537021;28;20131;-36
2024/02/16 21:11:55;;;;;;;96.57;91.07;;;10.90;99.90;;;;;;12563493;28;20507;-36
2024/02/16 21:17:57;;;;;;;103.25;97.28;;;10.90;99.90;;;;;;12568446;28;20091;-36
2024/02/16 21:24:00;;;;;;;101.40;95.70;;;10.90;99.90;;;;;;12553145;28;20060;-36
2024/02/16 21:30:02;;;;;;;93.78;88.38;;;11.00;99.90;;;;;;12527162;28;20535;-36
2024/02/16 21:36:09;;;;;;;97.78;92.22;;;11.10;99.90;;;;;;12553154;28;20053;-36
2024/02/16 21:42:13;;;;;;;97.97;92.28;;;11.00;99.90;;;;;;12520554;28;20052;-36
2024/02/16 21:48:15;;;;;;;96.90;91.32;;;10.90;99.90;;;;;;12551204;28;20044;-36
2024/02/16 21:54:30;;;;;;;98.63;93.00;;;10.80;99.90;;;;;;12536983;28;20485;-36
2024/02/16 22:00:31;;;;;;;103.63;97.53;;;10.80;99.90;;;;;;12565507;28;20041;-35
2024/02/16 22:06:34;;;;;;;102.00;96.07;;;10.80;99.90;;;;;;12557243;28;20052;-35
2024/02/16 22:12:36;;;;;;;102.53;96.40;;;10.80;99.90;;;;;;12545456;28;20102;-35
2024/02/16 22:18:40;;;;;;;100.57;94.65;;;10.90;99.90;;;;;;12560490;28;20057;-35
2024/02/16 22:24:42;;;;;;;102.78;96.78;;;10.90;99.90;;;;;;12533580;28;22446;-36
2024/02/16 22:30:44;;;;;;;98.07;92.07;;;10.90;99.90;;;;;;12555613;28;20066;-36
2024/02/16 22:36:46;;;;;;;99.43;93.55;;;10.90;99.90;;;;;;12561601;28;20697;-42
2024/02/16 22:42:48;;;;;;;103.75;97.72;;;10.90;99.90;;;;;;12565647;28;20136;-35
2024/02/16 22:48:50;;;;;;;102.88;96.65;;;10.80;99.90;;;;;;12588578;28;20048;-35
2024/02/16 22:54:53;;;;;;;111.10;104.30;;;10.80;99.90;;;;;;12577783;28;20060;-35
2024/02/16 23:00:56;;;;;;;108.10;101.70;;;10.80;99.90;;;;;;12577647;28;20386;-35
2024/02/16 23:06:58;;;;;;;108.37;101.60;;;10.80;99.90;;;;;;12562938;28;20049;-36
2024/02/16 23:13:02;;;;;;;108.30;101.85;;;10.70;99.90;;;;;;12570031;28;20178;-35
2024/02/16 23:19:04;;;;;;;109.13;102.53;;;10.70;99.90;;;;;;12571507;28;20048;-36
2024/02/16 23:25:07;;;;;;;105.05;98.65;;;10.70;99.90;;;;;;12546908;28;20106;-35
2024/02/16 23:31:09;;;;;;;106.97;100.55;;;10.70;99.90;;;;;;12560955;28;20106;-35
2024/02/16 23:37:12;;;;;;;107.00;100.70;;;10.70;99.90;;;;;;12561354;28;20049;-36
2024/02/16 23:43:14;;;;;;;109.72;103.03;;;10.70;99.90;;;;;;12543849;28;20044;-35
2024/02/16 23:49:16;;;;;;;107.45;100.82;;;10.70;99.90;;;;;;12573103;28;20086;-35
2024/02/16 23:55:18;;;;;;;105.93;99.53;;;10.70;99.90;;;;;;12542940;28;20531;-35
